createdAt,value
2023-05-14T00:01:36.977Z,14.94
2023-05-14T00:04:05.569Z,14.90
2023-05-14T00:06:34.047Z,14.85
2023-05-14T00:09:05.446Z,14.84
2023-05-14T00:11:33.735Z,14.80
2023-05-14T00:14:01.971Z,14.75
2023-05-14T00:16:31.500Z,14.74
2023-05-14T00:18:59.831Z,14.68
2023-05-14T00:21:28.283Z,14.69
2023-05-14T00:23:56.678Z,14.66
2023-05-14T00:26:25.060Z,14.61
2023-05-14T00:28:53.569Z,14.60
2023-05-14T00:31:22.157Z,14.57
2023-05-14T00:33:52.966Z,14.54
2023-05-14T00:36:21.337Z,14.51
2023-05-14T00:38:52.436Z,14.50
2023-05-14T00:41:21.119Z,14.52
2023-05-14T00:43:49.403Z,14.48
2023-05-14T00:46:17.794Z,14.48
2023-05-14T00:48:49.093Z,14.47
2023-05-14T00:51:17.763Z,14.49
2023-05-14T00:53:47.110Z,14.42
2023-05-14T00:56:16.470Z,14.40
2023-05-14T00:58:44.772Z,14.38
2023-05-14T01:01:15.333Z,14.38
2023-05-14T01:03:44.031Z,14.29
2023-05-14T01:06:55.264Z,14.31
2023-05-14T01:09:53.964Z,14.25
2023-05-14T01:13:08.635Z,14.24
2023-05-14T01:15:40.105Z,14.21
2023-05-14T01:18:11.630Z,14.21
2023-05-14T01:20:40.100Z,14.16
2023-05-14T01:23:09.621Z,14.13
2023-05-14T01:25:38.673Z,14.09
2023-05-14T01:28:20.432Z,14.04
2023-05-14T01:30:53.408Z,14.08
2023-05-14T01:33:26.436Z,14.04
2023-05-14T01:35:55.994Z,13.94
2023-05-14T01:38:25.340Z,13.94
2023-05-14T01:40:56.690Z,13.92
2023-05-14T01:43:26.526Z,13.86
2023-05-14T01:45:55.531Z,13.90
2023-05-14T01:48:24.040Z,13.84
2023-05-14T01:50:52.887Z,13.84
2023-05-14T01:53:21.491Z,13.84
2023-05-14T01:55:49.736Z,13.81
2023-05-14T01:58:18.055Z,13.77
2023-05-14T02:00:46.410Z,13.72
2023-05-14T02:03:14.691Z,13.67
2023-05-14T02:05:42.991Z,13.67
2023-05-14T02:08:11.593Z,13.59
2023-05-14T02:10:40.108Z,13.62
2023-05-14T02:13:09.620Z,13.60
2023-05-14T02:15:39.104Z,13.64
2023-05-14T02:18:07.684Z,13.63
2023-05-14T02:20:35.969Z,13.62
2023-05-14T02:23:04.372Z,13.63
2023-05-14T02:25:32.703Z,13.60
2023-05-14T02:28:00.939Z,13.57
2023-05-14T02:30:30.044Z,13.59
2023-05-14T02:32:58.574Z,13.45
2023-05-14T02:35:26.977Z,13.54
2023-05-14T02:37:55.347Z,13.52
2023-05-14T02:40:23.839Z,13.49
2023-05-14T02:42:52.647Z,13.48
2023-05-14T02:45:21.897Z,13.43
2023-05-14T02:47:50.212Z,13.43
2023-05-14T02:50:18.712Z,13.46
2023-05-14T02:52:46.973Z,13.44
2023-05-14T02:55:15.349Z,13.34
2023-05-14T02:57:43.574Z,13.38
2023-05-14T03:00:12.890Z,13.33
2023-05-14T03:02:43.589Z,13.33
2023-05-14T03:05:12.447Z,13.29
2023-05-14T03:07:40.704Z,13.26
2023-05-14T03:10:09.621Z,13.29
2023-05-14T03:12:37.835Z,13.25
2023-05-14T03:15:06.574Z,13.21
2023-05-14T03:17:35.543Z,13.21
2023-05-14T03:20:04.408Z,13.18
2023-05-14T03:22:32.677Z,13.14
2023-05-14T03:25:01.212Z,13.08
2023-05-14T03:27:30.243Z,13.08
2023-05-14T03:29:58.516Z,13.06
2023-05-14T03:32:26.801Z,13.02
2023-05-14T03:34:55.640Z,12.98
2023-05-14T03:37:24.214Z,12.97
2023-05-14T03:39:52.452Z,12.94
2023-05-14T03:42:20.757Z,12.84
2023-05-14T03:44:49.362Z,12.94
2023-05-14T03:47:17.606Z,12.94
2023-05-14T03:49:46.196Z,12.81
2023-05-14T03:52:16.068Z,12.91
2023-05-14T03:54:45.950Z,12.90
2023-05-14T03:57:14.385Z,12.90
2023-05-14T03:59:42.640Z,12.92
2023-05-14T04:02:10.899Z,12.88
2023-05-14T04:04:39.302Z,12.85
2023-05-14T04:07:08.856Z,12.90
2023-05-14T04:09:41.733Z,12.95
2023-05-14T04:12:10.354Z,12.97
2023-05-14T04:14:38.635Z,12.94
2023-05-14T04:17:06.943Z,13.03
2023-05-14T04:19:35.341Z,13.03
2023-05-14T04:22:05.278Z,13.09
2023-05-14T04:24:33.516Z,13.15
2023-05-14T04:27:01.760Z,13.17
2023-05-14T04:29:30.277Z,13.22
2023-05-14T04:31:58.637Z,13.23
2023-05-14T04:34:26.965Z,13.27
2023-05-14T04:36:58.712Z,13.32
2023-05-14T04:39:26.941Z,13.37
2023-05-14T04:41:55.376Z,13.40
2023-05-14T04:44:23.599Z,13.46
2023-05-14T04:46:51.857Z,13.47
2023-05-14T04:49:20.944Z,13.50
2023-05-14T04:51:49.419Z,13.52
2023-05-14T04:54:17.774Z,13.55
2023-05-14T04:56:47.671Z,13.57
2023-05-14T04:59:16.466Z,13.60
2023-05-14T05:01:45.845Z,13.61
2023-05-14T05:04:14.480Z,13.65
2023-05-14T05:06:42.754Z,13.71
2023-05-14T05:09:10.962Z,13.73
2023-05-14T05:11:39.234Z,13.74
2023-05-14T05:14:07.533Z,13.73
2023-05-14T05:16:36.016Z,13.74
2023-05-14T05:19:04.550Z,13.78
2023-05-14T05:21:32.969Z,13.79
2023-05-14T05:24:03.437Z,13.83
2023-05-14T05:26:36.666Z,13.86
2023-05-14T05:29:06.343Z,13.89
2023-05-14T05:31:59.347Z,13.94
2023-05-14T05:34:28.053Z,13.98
2023-05-14T05:36:56.286Z,14.02
2023-05-14T05:39:25.087Z,14.05
2023-05-14T05:41:54.578Z,14.09
2023-05-14T05:44:22.890Z,14.14
2023-05-14T05:46:51.248Z,14.18
2023-05-14T05:49:19.542Z,14.23
2023-05-14T05:51:47.766Z,14.33
2023-05-14T05:54:16.004Z,14.34
2023-05-14T05:56:45.534Z,14.37
2023-05-14T05:59:13.762Z,14.43
2023-05-14T06:01:43.455Z,14.48
2023-05-14T06:04:11.698Z,14.57
2023-05-14T06:06:39.910Z,14.70
2023-05-14T06:09:10.439Z,14.77
2023-05-14T06:11:38.684Z,14.83
2023-05-14T06:14:06.944Z,14.88
2023-05-14T06:16:35.308Z,14.95
2023-05-14T06:19:03.758Z,14.99
2023-05-14T06:21:32.166Z,15.05
2023-05-14T06:24:00.594Z,15.16
2023-05-14T06:26:28.864Z,15.19
2023-05-14T06:28:59.123Z,15.24
2023-05-14T06:31:27.518Z,15.30
2023-05-14T06:33:55.780Z,15.35
2023-05-14T06:36:24.043Z,15.45
2023-05-14T06:38:52.367Z,15.50
2023-05-14T06:41:21.211Z,15.57
2023-05-14T06:43:49.530Z,15.66
2023-05-14T06:46:22.687Z,15.72
2023-05-14T06:48:50.943Z,15.78
2023-05-14T06:51:19.294Z,15.81
2023-05-14T06:53:48.801Z,15.89
2023-05-14T06:56:17.050Z,16.00
2023-05-14T06:58:45.647Z,16.07
2023-05-14T07:01:14.022Z,16.17
2023-05-14T07:03:43.533Z,16.22
2023-05-14T07:06:36.920Z,16.50
2023-05-14T07:09:07.045Z,16.57
2023-05-14T07:11:35.571Z,16.71
2023-05-14T07:14:03.826Z,16.82
2023-05-14T07:16:32.199Z,16.96
2023-05-14T07:19:11.732Z,17.16
2023-05-14T07:21:40.128Z,17.33
2023-05-14T07:24:14.671Z,17.39
2023-05-14T07:26:43.010Z,17.52
2023-05-14T07:29:11.352Z,17.65
2023-05-14T07:31:39.865Z,17.85
2023-05-14T07:34:08.765Z,17.98
2023-05-14T07:36:37.304Z,18.08
2023-05-14T07:39:05.571Z,18.20
2023-05-14T07:41:35.003Z,18.31
2023-05-14T07:44:07.269Z,18.44
2023-05-14T07:46:38.404Z,18.51
2023-05-14T07:49:10.624Z,18.69
2023-05-14T07:51:42.139Z,18.78
2023-05-14T07:54:11.291Z,18.88
2023-05-14T07:56:39.576Z,19.03
2023-05-14T07:59:17.131Z,19.16
2023-05-14T08:01:45.522Z,19.30
2023-05-14T08:04:16.124Z,19.40
2023-05-14T08:06:52.326Z,19.50
2023-05-14T08:09:20.595Z,19.65
2023-05-14T08:11:48.858Z,19.70
2023-05-14T08:14:17.069Z,19.70
2023-05-14T08:16:47.779Z,19.89
2023-05-14T08:19:16.594Z,20.07
2023-05-14T08:21:45.287Z,20.16
2023-05-14T08:24:14.164Z,20.23
2023-05-14T08:26:42.468Z,20.39
2023-05-14T08:29:11.520Z,20.54
2023-05-14T08:31:41.041Z,20.58
2023-05-14T08:34:09.439Z,20.70
2023-05-14T08:36:38.729Z,20.80
2023-05-14T08:39:09.617Z,20.80
2023-05-14T08:41:39.989Z,21.06
2023-05-14T08:44:11.257Z,21.11
2023-05-14T08:46:40.737Z,21.24
2023-05-14T08:49:40.751Z,21.34
2023-05-14T08:52:12.537Z,21.47
2023-05-14T08:54:41.154Z,21.47
2023-05-14T08:57:10.678Z,21.59
2023-05-14T08:59:39.047Z,21.62
2023-05-14T09:02:07.859Z,21.76
2023-05-14T09:04:43.282Z,21.92
2023-05-14T09:07:11.725Z,22.03
2023-05-14T09:09:40.540Z,22.21
2023-05-14T09:12:09.877Z,22.42
2023-05-14T09:14:38.603Z,22.66
2023-05-14T09:17:06.957Z,22.81
2023-05-14T09:19:38.049Z,22.95
2023-05-14T09:22:11.689Z,23.17
2023-05-14T09:24:40.213Z,23.27
2023-05-14T09:27:10.928Z,23.77
2023-05-14T09:29:43.402Z,24.63
2023-05-14T09:32:11.755Z,25.29
2023-05-14T09:34:41.141Z,25.86
2023-05-14T09:37:10.015Z,26.57
2023-05-14T09:39:39.714Z,27.21
2023-05-14T09:42:08.326Z,27.62
2023-05-14T09:44:38.002Z,27.29
2023-05-14T09:47:06.649Z,28.21
2023-05-14T09:49:35.150Z,28.50
2023-05-14T09:52:03.692Z,28.49
2023-05-14T09:54:33.233Z,27.72
2023-05-14T09:57:01.841Z,27.85
2023-05-14T09:59:33.064Z,27.61
2023-05-14T10:02:01.541Z,28.50
2023-05-14T10:04:29.887Z,29.03
2023-05-14T10:06:58.499Z,29.67
2023-05-14T10:09:29.917Z,30.09
2023-05-14T10:12:01.256Z,30.73
2023-05-14T10:14:41.348Z,31.27
2023-05-14T10:17:18.110Z,31.95
2023-05-14T10:19:54.653Z,32.01
2023-05-14T10:22:33.368Z,31.88
2023-05-14T10:25:03.984Z,32.30
2023-05-14T10:27:33.321Z,32.53
2023-05-14T10:30:04.951Z,33.24
2023-05-14T10:32:33.524Z,33.85
2023-05-14T10:35:02.674Z,33.65
2023-05-14T10:37:31.140Z,33.27
2023-05-14T10:40:06.471Z,33.92
2023-05-14T10:42:40.563Z,33.59
2023-05-14T10:45:15.320Z,34.28
2023-05-14T10:47:46.556Z,34.45
2023-05-14T10:50:16.258Z,35.04
2023-05-14T10:52:48.281Z,35.62
2023-05-14T10:55:17.292Z,35.69
2023-05-14T10:57:47.092Z,36.32
2023-05-14T11:00:16.197Z,36.61
2023-05-14T11:02:45.136Z,36.66
2023-05-14T11:05:17.823Z,36.84
2023-05-14T11:07:49.403Z,36.76
2023-05-14T11:10:25.764Z,36.27
2023-05-14T11:12:54.367Z,35.62
2023-05-14T11:15:26.190Z,36.18
2023-05-14T11:17:55.609Z,36.97
2023-05-14T11:20:24.226Z,36.87
2023-05-14T11:22:52.722Z,37.45
2023-05-14T11:25:22.785Z,37.18
2023-05-14T11:27:51.414Z,37.81
2023-05-14T11:30:21.443Z,38.16
2023-05-14T11:32:50.987Z,38.14
2023-05-14T11:35:19.541Z,37.10
2023-05-14T11:37:52.507Z,36.97
2023-05-14T11:40:21.320Z,37.17
2023-05-14T11:42:53.316Z,37.52
2023-05-14T11:45:26.528Z,37.71
2023-05-14T11:47:54.982Z,38.12
2023-05-14T11:50:24.052Z,37.32
2023-05-14T11:52:57.483Z,38.14
2023-05-14T11:55:26.004Z,38.70
2023-05-14T11:57:54.486Z,38.40
2023-05-14T12:00:24.568Z,37.32
2023-05-14T12:02:53.263Z,36.67
2023-05-14T12:05:21.913Z,35.82
2023-05-14T12:07:50.164Z,35.14
2023-05-14T12:10:18.447Z,35.49
2023-05-14T12:12:48.801Z,34.82
2023-05-14T12:15:17.507Z,36.14
2023-05-14T12:17:52.147Z,36.34
2023-05-14T12:20:20.685Z,35.76
2023-05-14T12:22:48.973Z,36.51
2023-05-14T12:25:17.309Z,37.94
2023-05-14T12:27:45.824Z,37.84
2023-05-14T12:32:46.453Z,38.43
2023-05-14T12:35:14.825Z,38.79
2023-05-14T12:37:43.211Z,39.11
2023-05-14T12:40:11.928Z,39.12
2023-05-14T12:42:40.236Z,40.14
2023-05-14T12:45:09.050Z,39.78
2023-05-14T12:47:37.581Z,40.18
2023-05-14T12:50:07.747Z,40.64
2023-05-14T12:52:39.711Z,40.85
2023-05-14T12:55:11.886Z,41.05
2023-05-14T12:57:40.235Z,40.99
2023-05-14T13:00:13.895Z,41.54
2023-05-14T13:02:43.855Z,41.47
2023-05-14T13:05:12.857Z,41.96
2023-05-14T13:07:44.187Z,42.39
2023-05-14T13:10:12.676Z,42.43
2023-05-14T13:12:41.061Z,42.70
2023-05-14T13:15:10.052Z,42.94
2023-05-14T13:17:38.312Z,42.33
2023-05-14T13:20:07.667Z,42.80
2023-05-14T13:22:36.143Z,43.08
2023-05-14T13:25:04.969Z,42.43
2023-05-14T13:27:33.778Z,42.54
2023-05-14T13:30:02.040Z,42.62
2023-05-14T13:32:30.744Z,42.31
2023-05-14T13:34:59.111Z,42.70
2023-05-14T13:37:27.354Z,43.55
2023-05-14T13:39:55.680Z,43.57
2023-05-14T13:42:23.931Z,43.66
2023-05-14T13:44:53.635Z,43.33
2023-05-14T13:47:21.990Z,43.68
2023-05-14T13:49:50.457Z,43.50
2023-05-14T13:52:18.814Z,43.69
2023-05-14T13:54:47.262Z,43.69
2023-05-14T13:57:15.597Z,43.92
2023-05-14T13:59:43.858Z,44.10
2023-05-14T14:02:12.186Z,43.84
2023-05-14T14:04:40.544Z,44.04
2023-05-14T14:07:09.088Z,44.69
2023-05-14T14:09:37.506Z,44.32
2023-05-14T14:12:06.256Z,44.07
2023-05-14T14:14:34.602Z,44.30
2023-05-14T14:17:02.922Z,43.94
2023-05-14T14:19:31.280Z,44.17
2023-05-14T14:21:59.558Z,43.85
2023-05-14T14:24:27.773Z,44.03
2023-05-14T14:27:02.418Z,43.72
2023-05-14T14:29:31.137Z,44.07
2023-05-14T14:31:59.838Z,43.93
2023-05-14T14:34:28.297Z,43.10
2023-05-14T14:36:56.588Z,42.29
2023-05-14T14:39:25.473Z,41.43
2023-05-14T14:41:53.713Z,39.62
2023-05-14T14:44:22.187Z,39.11
2023-05-14T14:46:51.502Z,39.01
2023-05-14T14:49:19.889Z,37.96
2023-05-14T14:51:48.173Z,37.57
2023-05-14T14:54:16.752Z,37.25
2023-05-14T14:56:45.885Z,37.02
2023-05-14T14:59:14.117Z,37.09
2023-05-14T15:01:42.555Z,37.16
2023-05-14T15:04:10.835Z,36.28
2023-05-14T15:06:39.096Z,37.12
2023-05-14T15:09:07.779Z,38.32
2023-05-14T15:11:37.405Z,36.95
2023-05-14T15:14:05.523Z,37.93
2023-05-14T15:16:33.817Z,37.34
2023-05-14T15:19:02.139Z,37.10
2023-05-14T15:21:30.461Z,37.54
2023-05-14T15:24:02.062Z,37.24
2023-05-14T15:26:30.373Z,37.85
2023-05-14T15:28:59.175Z,37.48
2023-05-14T15:31:27.469Z,37.60
2023-05-14T15:33:56.022Z,37.56
2023-05-14T15:36:24.471Z,37.57
2023-05-14T15:38:52.730Z,37.33
2023-05-14T15:41:21.093Z,37.16
2023-05-14T15:43:50.604Z,36.76
2023-05-14T15:46:18.957Z,36.44
2023-05-14T15:48:47.253Z,35.99
2023-05-14T15:53:58.621Z,34.95
2023-05-14T15:56:27.029Z,34.57
2023-05-14T15:58:55.354Z,34.20
2023-05-14T16:01:23.745Z,34.03
2023-05-14T16:03:53.039Z,33.95
2023-05-14T16:06:21.532Z,34.08
2023-05-14T16:08:49.842Z,34.19
2023-05-14T16:11:19.657Z,34.05
2023-05-14T16:13:48.296Z,33.73
2023-05-14T16:16:16.772Z,33.96
2023-05-14T16:18:45.237Z,33.40
2023-05-14T16:21:13.544Z,33.70
2023-05-14T16:23:41.770Z,33.83
2023-05-14T16:26:10.011Z,33.51
2023-05-14T16:28:41.275Z,33.55
2023-05-14T16:31:09.630Z,32.91
2023-05-14T16:33:38.067Z,32.96
2023-05-14T16:36:06.434Z,32.81
2023-05-14T16:38:38.559Z,32.74
2023-05-14T16:41:09.887Z,32.75
2023-05-14T16:43:38.205Z,32.89
2023-05-14T16:46:06.645Z,33.01
2023-05-14T16:48:34.954Z,32.61
2023-05-14T16:51:03.208Z,32.84
2023-05-14T16:53:31.545Z,32.78
2023-05-14T16:55:59.798Z,32.41
2023-05-14T16:58:28.377Z,32.08
2023-05-14T17:00:56.696Z,32.17
2023-05-14T17:03:25.002Z,32.00
2023-05-14T17:05:54.259Z,32.09
2023-05-14T17:08:22.477Z,31.68
2023-05-14T17:10:50.700Z,31.48
2023-05-14T17:13:19.045Z,31.75
2023-05-14T17:15:48.713Z,31.54
2023-05-14T17:18:17.111Z,31.17
2023-05-14T17:20:45.503Z,31.31
2023-05-14T17:23:13.811Z,31.20
2023-05-14T17:25:42.369Z,30.77
2023-05-14T17:28:11.645Z,30.32
2023-05-14T17:30:40.909Z,29.99
2023-05-14T17:33:09.454Z,29.66
2023-05-14T17:35:37.907Z,29.07
2023-05-14T17:38:07.316Z,28.78
2023-05-14T17:40:35.560Z,28.39
2023-05-14T17:43:03.876Z,27.98
2023-05-14T17:45:42.715Z,27.63
2023-05-14T17:48:20.643Z,27.57
2023-05-14T17:50:49.042Z,27.44
2023-05-14T17:53:17.449Z,27.29
2023-05-14T17:55:45.800Z,27.14
2023-05-14T17:58:18.701Z,27.00
2023-05-14T18:00:47.143Z,26.82
2023-05-14T18:03:15.650Z,26.81
2023-05-14T18:05:44.085Z,26.69
2023-05-14T18:08:12.872Z,26.35
2023-05-14T18:10:41.166Z,26.21
2023-05-14T18:13:09.399Z,26.26
2023-05-14T18:15:38.627Z,26.31
2023-05-14T18:18:07.210Z,26.14
2023-05-14T18:20:36.256Z,25.71
2023-05-14T18:23:04.541Z,25.47
2023-05-14T18:25:32.883Z,24.93
2023-05-14T18:28:01.112Z,25.24
2023-05-14T18:30:29.398Z,25.32
2023-05-14T18:32:58.820Z,24.54
2023-05-14T18:35:27.895Z,24.90
2023-05-14T18:37:56.371Z,24.97
2023-05-14T18:40:24.605Z,24.42
2023-05-14T18:42:52.918Z,24.55
2023-05-14T18:45:21.908Z,24.50
2023-05-14T18:47:51.512Z,24.05
2023-05-14T18:50:20.340Z,23.93
2023-05-14T18:52:48.780Z,23.76
2023-05-14T18:55:17.215Z,23.88
2023-05-14T18:57:47.113Z,23.89
2023-05-14T19:00:15.959Z,23.44
2023-05-14T19:02:44.362Z,23.43
2023-05-14T19:05:12.711Z,23.40
2023-05-14T19:07:41.725Z,23.34
2023-05-14T19:10:10.841Z,23.33
2023-05-14T19:12:39.096Z,23.31
2023-05-14T19:15:07.930Z,23.25
2023-05-14T19:17:37.357Z,22.99
2023-05-14T19:20:07.960Z,22.81
2023-05-14T19:22:36.321Z,22.61
2023-05-14T19:25:06.884Z,22.69
2023-05-14T19:27:38.685Z,22.67
2023-05-14T19:30:08.352Z,22.62
2023-05-14T19:32:37.955Z,22.54
2023-05-14T19:35:07.222Z,22.25
2023-05-14T19:37:35.949Z,22.12
2023-05-14T19:40:05.095Z,21.92
2023-05-14T19:42:33.999Z,21.92
2023-05-14T19:45:03.921Z,21.82
2023-05-14T19:47:33.061Z,21.60
2023-05-14T19:50:05.106Z,21.78
2023-05-14T19:52:33.847Z,21.67
2023-05-14T19:55:02.182Z,21.65
2023-05-14T19:57:31.390Z,21.50
2023-05-14T20:00:03.796Z,21.56
2023-05-14T20:02:40.936Z,21.47
2023-05-14T20:05:12.816Z,21.38
2023-05-14T20:07:42.329Z,21.36
2023-05-14T20:10:11.586Z,21.27
2023-05-14T20:12:40.112Z,21.03
2023-05-14T20:15:10.058Z,21.08
2023-05-14T20:17:39.759Z,21.04
2023-05-14T20:20:10.002Z,20.97
2023-05-14T20:22:40.109Z,20.90
2023-05-14T20:25:10.142Z,20.84
2023-05-14T20:27:39.347Z,20.78
2023-05-14T20:30:12.768Z,20.67
2023-05-14T20:32:41.079Z,20.60
2023-05-14T20:35:09.559Z,20.58
2023-05-14T20:37:38.016Z,20.54
2023-05-14T20:40:09.891Z,20.47
2023-05-14T20:42:39.015Z,20.43
2023-05-14T20:45:08.067Z,20.38
2023-05-14T20:47:36.319Z,20.31
2023-05-14T20:50:05.265Z,20.23
2023-05-14T20:52:33.675Z,20.22
2023-05-14T20:55:02.497Z,20.10
2023-05-14T20:57:31.482Z,20.10
2023-05-14T21:00:00.173Z,20.05
2023-05-14T21:02:28.671Z,20.08
2023-05-14T21:04:57.150Z,20.04
2023-05-14T21:07:27.102Z,19.99
2023-05-14T21:09:56.606Z,19.88
2023-05-14T21:12:25.007Z,19.84
2023-05-14T21:14:53.312Z,19.86
2023-05-14T21:17:22.163Z,19.83
2023-05-14T21:19:51.022Z,19.80
2023-05-14T21:22:19.375Z,19.77
2023-05-14T21:24:50.170Z,19.73
2023-05-14T21:27:18.166Z,19.71
2023-05-14T21:29:47.212Z,19.63
2023-05-14T21:32:20.070Z,19.54
2023-05-14T21:34:48.405Z,19.51
2023-05-14T21:37:16.687Z,19.45
2023-05-14T21:39:44.962Z,19.39
2023-05-14T21:42:13.252Z,19.36
2023-05-14T21:44:41.581Z,19.24
2023-05-14T21:47:11.408Z,19.23
2023-05-14T21:49:39.648Z,19.23
2023-05-14T21:52:08.473Z,19.14
2023-05-14T21:54:36.702Z,19.12
2023-05-14T21:57:05.318Z,19.09
2023-05-14T21:59:34.352Z,19.06
2023-05-14T22:02:06.888Z,18.99
2023-05-14T22:04:35.788Z,18.93
2023-05-14T22:07:04.282Z,18.88
2023-05-14T22:09:32.555Z,18.82
2023-05-14T22:12:00.768Z,18.76
2023-05-14T22:14:29.351Z,18.60
2023-05-14T22:16:57.596Z,18.48
2023-05-14T22:19:26.834Z,18.53
2023-05-14T22:21:55.265Z,18.47
2023-05-14T22:24:26.418Z,18.49
2023-05-14T22:26:55.056Z,18.45
2023-05-14T22:29:23.323Z,18.41
2023-05-14T22:31:51.600Z,18.34
2023-05-14T22:34:19.898Z,18.28
2023-05-14T22:36:48.128Z,18.22
2023-05-14T22:39:16.387Z,18.15
2023-05-14T22:41:44.626Z,18.10
2023-05-14T22:44:12.831Z,18.06
2023-05-14T22:46:41.107Z,18.01
2023-05-14T22:49:09.358Z,17.95
2023-05-14T22:51:37.818Z,17.90
2023-05-14T22:54:06.120Z,17.84
2023-05-14T22:56:34.396Z,17.80
2023-05-14T22:59:02.629Z,17.77
2023-05-14T23:01:31.853Z,17.73
2023-05-14T23:04:00.222Z,17.73
2023-05-14T23:06:29.738Z,17.70
2023-05-14T23:08:58.073Z,17.63
2023-05-14T23:11:27.001Z,17.58
2023-05-14T23:13:55.675Z,17.52
2023-05-14T23:16:24.066Z,17.50
2023-05-14T23:18:53.118Z,17.45
2023-05-14T23:21:21.539Z,17.42
2023-05-14T23:23:49.805Z,17.38
2023-05-14T23:26:18.024Z,17.33
2023-05-14T23:28:47.322Z,17.27
2023-05-14T23:31:15.625Z,17.24
2023-05-14T23:33:44.649Z,17.20
2023-05-14T23:36:12.952Z,17.15
2023-05-14T23:38:41.248Z,17.12
2023-05-14T23:41:09.479Z,17.08
2023-05-14T23:43:37.915Z,17.06
2023-05-14T23:46:06.273Z,17.00
2023-05-14T23:48:34.516Z,16.89
2023-05-14T23:51:02.740Z,16.98
2023-05-14T23:53:31.028Z,16.93
2023-05-14T23:55:59.272Z,16.91
2023-05-14T23:58:29.836Z,16.88
